Aviation Digital Data Service (ADDS)

Output produced by METARs form (0142 UTC 26 April 2019)
found at http://www.aviationweather.gov/metar/data/
 
KGXY 260056Z 15008KT 10SM CLR 18/M01 A3016 RMK AO2 SLP197 T01781011